createdAt,value
2016-12-12T00:00:38.682Z,0
2016-12-12T00:01:39.650Z,0
2016-12-12T00:02:38.993Z,0
2016-12-12T00:03:38.994Z,0
2016-12-12T00:04:38.981Z,0
2016-12-12T00:05:38.982Z,0
2016-12-12T00:06:38.678Z,0
2016-12-12T00:07:39.634Z,0
2016-12-12T00:08:39.298Z,0
2016-12-12T00:09:39.298Z,0
2016-12-12T00:10:38.962Z,0
2016-12-12T00:11:39.622Z,0
2016-12-12T00:12:39.274Z,0
2016-12-12T00:13:39.602Z,0
2016-12-12T00:14:39.278Z,0
2016-12-12T00:15:38.951Z,0
2016-12-12T00:16:39.274Z,0
2016-12-12T00:17:39.266Z,0
2016-12-12T00:18:39.247Z,0
2016-12-12T00:19:39.583Z,0
2016-12-12T00:20:39.587Z,0
2016-12-12T00:21:39.246Z,0
2016-12-12T00:22:39.251Z,0
2016-12-12T00:23:39.247Z,0
2016-12-12T00:24:39.239Z,0
2016-12-12T00:25:38.903Z,0
2016-12-12T00:26:39.559Z,0
2016-12-12T00:27:39.247Z,0
2016-12-12T00:28:39.227Z,0
2016-12-12T00:29:39.551Z,0
2016-12-12T00:30:39.552Z,0
2016-12-12T00:31:39.540Z,0
2016-12-12T00:32:38.888Z,0
2016-12-12T00:33:39.204Z,0
2016-12-12T00:34:39.536Z,0
2016-12-12T00:35:39.199Z,0
2016-12-12T00:36:38.864Z,0
2016-12-12T00:37:39.532Z,0
2016-12-12T00:38:39.516Z,0
2016-12-12T00:39:39.512Z,0
2016-12-12T00:40:39.520Z,0
2016-12-12T00:41:39.176Z,0
2016-12-12T00:42:39.177Z,0
2016-12-12T00:43:39.165Z,0
2016-12-12T00:44:39.501Z,0
2016-12-12T00:45:39.161Z,0
2016-12-12T00:46:39.164Z,0
2016-12-12T00:47:39.481Z,0
2016-12-12T00:48:39.153Z,0
2016-12-12T00:49:39.149Z,0
2016-12-12T00:50:39.141Z,0
2016-12-12T00:51:39.141Z,0
2016-12-12T00:52:39.133Z,0
2016-12-12T00:53:38.801Z,0
2016-12-12T00:54:39.453Z,0
2016-12-12T00:55:38.790Z,0
2016-12-12T00:56:39.453Z,0
2016-12-12T00:57:39.121Z,0
2016-12-12T00:58:39.150Z,0
2016-12-12T00:59:38.778Z,0
2016-12-12T01:00:39.438Z,0
2016-12-12T01:01:38.442Z,0
2016-12-12T01:02:39.418Z,0
2016-12-12T01:03:38.770Z,0
2016-12-12T01:04:39.090Z,0
2016-12-12T01:05:39.095Z,0
2016-12-12T01:06:39.083Z,0
2016-12-12T01:07:38.759Z,0
2016-12-12T01:08:39.107Z,0
2016-12-12T01:09:38.760Z,0
2016-12-12T01:10:39.075Z,0
2016-12-12T01:11:38.747Z,0
2016-12-12T01:12:39.395Z,0
2016-12-12T01:13:39.391Z,0
2016-12-12T01:14:39.383Z,0
2016-12-12T01:15:39.379Z,0
2016-12-12T01:16:39.384Z,0
2016-12-12T01:17:38.716Z,0
2016-12-12T01:18:39.056Z,0
2016-12-12T01:19:39.040Z,0
2016-12-12T01:20:39.036Z,0
2016-12-12T01:21:39.032Z,0
2016-12-12T01:22:38.692Z,0
2016-12-12T01:23:39.020Z,0
2016-12-12T01:24:39.348Z,0
2016-12-12T01:25:38.360Z,0
2016-12-12T01:26:39.012Z,0
2016-12-12T01:27:39.012Z,0
2016-12-12T01:28:39.001Z,0
2016-12-12T01:29:38.346Z,0
2016-12-12T01:30:39.333Z,0
2016-12-12T01:31:38.668Z,0
2016-12-12T01:32:39.033Z,0
2016-12-12T01:33:38.337Z,0
2016-12-12T01:34:39.310Z,0
2016-12-12T01:35:38.645Z,0
2016-12-12T01:36:38.981Z,0
2016-12-12T01:37:38.973Z,0
2016-12-12T01:38:39.297Z,0
2016-12-12T01:39:38.633Z,0
2016-12-12T01:40:39.281Z,0
2016-12-12T01:41:38.625Z,0
2016-12-12T01:42:38.629Z,0
2016-12-12T01:43:38.613Z,0
2016-12-12T01:44:38.941Z,0
2016-12-12T01:45:38.609Z,0
2016-12-12T01:46:38.941Z,0
2016-12-12T01:47:38.601Z,0
2016-12-12T01:48:38.973Z,0
2016-12-12T01:49:38.929Z,0
2016-12-12T01:50:39.253Z,0
2016-12-12T01:51:38.265Z,0
2016-12-12T01:52:39.245Z,0
2016-12-12T01:53:38.585Z,0
2016-12-12T01:54:39.242Z,0
2016-12-12T01:55:39.222Z,0
2016-12-12T01:56:38.906Z,0
2016-12-12T01:57:38.898Z,0
2016-12-12T01:58:39.218Z,0
2016-12-12T01:59:38.893Z,0
2016-12-12T02:00:39.214Z,0
2016-12-12T02:01:38.882Z,0
2016-12-12T02:02:39.206Z,0
2016-12-12T02:03:38.542Z,0
2016-12-12T02:04:39.202Z,0
2016-12-12T02:05:38.542Z,0
2016-12-12T02:06:38.538Z,0
2016-12-12T02:07:38.534Z,0
2016-12-12T02:08:39.187Z,0
2016-12-12T02:09:38.206Z,0
2016-12-12T02:10:38.847Z,0
2016-12-12T02:11:38.843Z,0
2016-12-12T02:12:38.843Z,0
2016-12-12T02:13:38.515Z,0
2016-12-12T02:14:38.840Z,0
2016-12-12T02:15:38.496Z,0
2016-12-12T02:16:39.151Z,0
2016-12-12T02:17:38.815Z,0
2016-12-12T02:18:39.143Z,0
2016-12-12T02:19:38.487Z,0
2016-12-12T02:20:38.807Z,0
2016-12-12T02:21:38.803Z,0
2016-12-12T02:22:38.807Z,0
2016-12-12T02:23:38.799Z,0
2016-12-12T02:24:38.463Z,0
2016-12-12T02:25:38.795Z,0
2016-12-12T02:26:38.780Z,0
2016-12-12T02:27:39.119Z,0
2016-12-12T02:28:39.107Z,0
2016-12-12T02:29:38.807Z,0
2016-12-12T02:30:38.780Z,0
2016-12-12T02:31:38.776Z,0
2016-12-12T02:32:39.092Z,0
2016-12-12T02:33:38.760Z,0
2016-12-12T02:34:38.759Z,0
2016-12-12T02:35:39.080Z,0
2016-12-12T02:36:39.076Z,0
2016-12-12T02:37:39.084Z,0
2016-12-12T02:38:38.736Z,0
2016-12-12T02:39:39.064Z,0
2016-12-12T02:40:39.072Z,0
2016-12-12T02:41:38.410Z,0
2016-12-12T02:42:38.733Z,0
2016-12-12T02:43:38.733Z,0
2016-12-12T02:44:39.041Z,0
2016-12-12T02:45:38.720Z,0
2016-12-12T02:46:38.713Z,0
2016-12-12T02:47:39.041Z,0
2016-12-12T02:48:38.704Z,0
2016-12-12T02:49:38.701Z,0
2016-12-12T02:50:39.025Z,0
2016-12-12T02:51:38.698Z,0
2016-12-12T02:52:38.364Z,0
2016-12-12T02:53:39.013Z,0
2016-12-12T02:54:38.681Z,0
2016-12-12T02:55:38.673Z,0
2016-12-12T02:56:38.674Z,0
2016-12-12T02:57:38.675Z,0
2016-12-12T02:58:38.349Z,0
2016-12-12T02:59:38.673Z,0
2016-12-12T03:00:38.665Z,0
2016-12-12T03:01:38.997Z,0
2016-12-12T03:02:38.361Z,0
2016-12-12T03:03:38.653Z,0
2016-12-12T03:04:38.325Z,0
2016-12-12T03:05:38.313Z,0
2016-12-12T03:06:38.313Z,0
2016-12-12T03:07:39.221Z,0
2016-12-12T03:08:37.985Z,0
2016-12-12T03:09:38.298Z,0
2016-12-12T03:10:38.309Z,0
2016-12-12T03:11:38.625Z,0
2016-12-12T03:12:38.818Z,0
2016-12-12T03:13:38.294Z,0
2016-12-12T03:14:38.278Z,0
2016-12-12T03:15:38.606Z,0
2016-12-12T03:16:38.606Z,0
2016-12-12T03:17:38.850Z,0
2016-12-12T03:18:38.274Z,0
2016-12-12T03:19:38.594Z,0
2016-12-12T03:20:38.582Z,0
2016-12-12T03:21:38.590Z,0
2016-12-12T03:22:38.782Z,0
2016-12-12T03:23:38.578Z,0
2016-12-12T03:24:37.918Z,0
2016-12-12T03:25:38.266Z,0
2016-12-12T03:26:38.238Z,0
2016-12-12T03:27:38.810Z,0
2016-12-12T03:28:38.570Z,0
2016-12-12T03:29:38.562Z,0
2016-12-12T03:30:38.226Z,0
2016-12-12T03:31:38.226Z,0
2016-12-12T03:32:38.742Z,0
2016-12-12T03:33:38.550Z,0
2016-12-12T03:34:38.538Z,0
2016-12-12T03:35:38.538Z,0
2016-12-12T03:36:38.538Z,0
2016-12-12T03:37:38.678Z,0
2016-12-12T03:38:38.190Z,0
2016-12-12T03:39:38.194Z,0
2016-12-12T03:40:38.514Z,0
2016-12-12T03:41:38.838Z,0
2016-12-12T03:42:38.762Z,0
2016-12-12T03:43:38.178Z,0
2016-12-12T03:44:38.502Z,0
2016-12-12T03:45:38.534Z,0
2016-12-12T03:46:38.170Z,0
2016-12-12T03:47:38.687Z,0
2016-12-12T03:48:38.822Z,0
2016-12-12T03:49:38.803Z,0
2016-12-12T03:50:38.147Z,0
2016-12-12T03:51:38.798Z,0
2016-12-12T03:52:38.312Z,0
2016-12-12T03:53:38.138Z,0
2016-12-12T03:54:38.134Z,0
2016-12-12T03:55:38.471Z,0
2016-12-12T03:56:38.130Z,0
2016-12-12T03:57:38.595Z,0
2016-12-12T03:58:38.446Z,0
2016-12-12T03:59:38.442Z,0
2016-12-12T04:00:38.114Z,0
2016-12-12T04:01:38.766Z,0
2016-12-12T04:02:38.906Z,0
2016-12-12T04:03:38.434Z,0
2016-12-12T04:04:38.428Z,0
2016-12-12T04:05:38.422Z,0
2016-12-12T04:06:38.759Z,0
2016-12-12T04:07:38.888Z,0
2016-12-12T04:08:38.084Z,0
2016-12-12T04:09:38.411Z,0
2016-12-12T04:10:38.070Z,0
2016-12-12T04:11:38.403Z,0
2016-12-12T04:12:38.223Z,0
2016-12-12T04:13:38.394Z,12
2016-12-12T04:14:38.422Z,12
2016-12-12T04:15:38.706Z,0
2016-12-12T04:16:38.371Z,0
2016-12-12T04:17:38.522Z,0
2016-12-12T04:18:38.367Z,0
2016-12-12T04:19:38.035Z,0
2016-12-12T04:20:38.358Z,0
2016-12-12T04:21:38.687Z,0
2016-12-12T04:22:38.507Z,0
2016-12-12T04:23:38.355Z,12
2016-12-12T04:24:38.348Z,12
2016-12-12T04:25:38.022Z,0
2016-12-12T04:26:38.015Z,0
2016-12-12T04:27:38.499Z,0
2016-12-12T04:28:38.655Z,0
2016-12-12T04:29:38.327Z,0
2016-12-12T04:30:37.990Z,0
2016-12-12T04:31:38.646Z,0
2016-12-12T04:32:38.145Z,0
2016-12-12T04:33:38.318Z,0
2016-12-12T04:34:38.674Z,0
2016-12-12T04:35:38.299Z,0
2016-12-12T04:36:38.302Z,0
2016-12-12T04:37:38.446Z,0
2016-12-12T04:38:37.962Z,0
2016-12-12T04:39:38.617Z,0
2016-12-12T04:40:38.289Z,0
2016-12-12T04:41:38.614Z,0
2016-12-12T04:42:38.845Z,0
2016-12-12T04:43:38.281Z,0
2016-12-12T04:44:37.949Z,12
2016-12-12T04:45:38.269Z,12
2016-12-12T04:46:37.937Z,0
2016-12-12T04:47:38.417Z,0
2016-12-12T04:48:38.253Z,0
2016-12-12T04:49:37.924Z,0
2016-12-12T04:50:37.920Z,0
2016-12-12T04:51:37.911Z,0
2016-12-12T04:52:38.768Z,0
2016-12-12T04:53:38.236Z,0
2016-12-12T04:54:38.232Z,0
2016-12-12T04:55:37.899Z,0
2016-12-12T04:56:38.551Z,0
2016-12-12T04:57:38.139Z,0
2016-12-12T04:58:38.547Z,12
2016-12-12T04:59:38.539Z,12
2016-12-12T05:00:38.211Z,0
2016-12-12T05:01:38.223Z,0
2016-12-12T05:02:38.355Z,0
2016-12-12T05:03:38.199Z,0
2016-12-12T05:04:37.871Z,0
2016-12-12T05:05:37.539Z,0
2016-12-12T05:06:38.507Z,0
2016-12-12T05:07:38.099Z,12
2016-12-12T05:08:37.855Z,12
2016-12-12T05:09:37.847Z,0
2016-12-12T05:10:38.499Z,0
2016-12-12T05:11:37.839Z,0
2016-12-12T05:12:38.647Z,0
2016-12-12T05:13:38.164Z,0
2016-12-12T05:14:38.151Z,0
2016-12-12T05:15:38.187Z,0
2016-12-12T05:16:38.151Z,0
2016-12-12T05:17:38.627Z,0
2016-12-12T05:18:38.476Z,0
2016-12-12T05:19:37.804Z,0
2016-12-12T05:20:38.456Z,0
2016-12-12T05:21:38.128Z,0
2016-12-12T05:22:38.280Z,0
2016-12-12T05:23:38.124Z,0
2016-12-12T05:24:37.800Z,0
2016-12-12T05:25:37.464Z,0
2016-12-12T05:26:38.116Z,0
2016-12-12T05:27:38.032Z,0
2016-12-12T05:28:38.433Z,0
2016-12-12T05:29:37.773Z,0
2016-12-12T05:30:38.429Z,0
2016-12-12T05:31:37.765Z,0
2016-12-12T05:32:37.921Z,0
2016-12-12T05:33:38.081Z,0
2016-12-12T05:34:38.405Z,0
2016-12-12T05:35:37.753Z,16
2016-12-12T05:36:38.408Z,12
2016-12-12T05:37:37.893Z,0
2016-12-12T05:38:38.069Z,0
2016-12-12T05:39:38.057Z,0
2016-12-12T05:40:38.057Z,0
2016-12-12T05:41:37.733Z,0
2016-12-12T05:42:38.534Z,0
2016-12-12T05:43:38.049Z,0
2016-12-12T05:44:38.042Z,0
2016-12-12T05:45:38.366Z,0
2016-12-12T05:46:38.038Z,0
2016-12-12T05:47:37.958Z,12
2016-12-12T05:48:38.034Z,12
2016-12-12T05:49:38.022Z,0
2016-12-12T05:50:38.030Z,12
2016-12-12T05:51:38.022Z,12
2016-12-12T05:52:38.222Z,0
2016-12-12T05:53:38.338Z,0
2016-12-12T05:54:38.014Z,0
2016-12-12T05:55:38.338Z,0
2016-12-12T05:56:38.323Z,12
2016-12-12T05:57:38.467Z,12
2016-12-12T05:58:38.006Z,0
2016-12-12T05:59:37.999Z,0
2016-12-12T06:00:37.983Z,0
2016-12-12T06:01:37.979Z,0
2016-12-12T06:02:38.131Z,0
2016-12-12T06:03:37.655Z,0
2016-12-12T06:04:37.639Z,0
2016-12-12T06:05:37.651Z,0
2016-12-12T06:06:37.631Z,0
2016-12-12T06:07:38.119Z,0
2016-12-12T06:08:37.959Z,0
2016-12-12T06:09:37.959Z,0
2016-12-12T06:10:37.619Z,0
2016-12-12T06:11:37.939Z,0
2016-12-12T06:12:38.088Z,0
2016-12-12T06:13:38.268Z,0
2016-12-12T06:14:37.600Z,0
2016-12-12T06:15:37.928Z,0
2016-12-12T06:16:38.252Z,0
2016-12-12T06:17:38.504Z,0
2016-12-12T06:18:37.920Z,0
2016-12-12T06:19:37.917Z,0
2016-12-12T06:20:38.240Z,0
2016-12-12T06:21:37.584Z,12
2016-12-12T06:22:38.385Z,12
2016-12-12T06:23:38.237Z,12
2016-12-12T06:24:37.904Z,12
2016-12-12T06:25:37.581Z,0
2016-12-12T06:26:38.213Z,0
2016-12-12T06:27:37.705Z,0
2016-12-12T06:28:38.217Z,0
2016-12-12T06:29:38.205Z,0
2016-12-12T06:30:38.205Z,0
2016-12-12T06:31:37.869Z,0
2016-12-12T06:32:38.021Z,0
2016-12-12T06:33:38.185Z,0
2016-12-12T06:34:37.853Z,0
2016-12-12T06:35:38.181Z,0
2016-12-12T06:36:38.185Z,0
2016-12-12T06:37:37.669Z,4
2016-12-12T06:38:38.175Z,4
2016-12-12T06:39:37.513Z,4
2016-12-12T06:40:38.165Z,0
2016-12-12T06:41:38.165Z,4
2016-12-12T06:42:37.973Z,4
2016-12-12T06:43:38.157Z,4
2016-12-12T06:44:37.821Z,4
2016-12-12T06:45:37.497Z,8
2016-12-12T06:46:37.489Z,4
2016-12-12T06:47:37.637Z,8
2016-12-12T06:48:37.485Z,8
2016-12-12T06:49:38.145Z,12
2016-12-12T06:50:37.149Z,12
2016-12-12T06:51:37.793Z,12
2016-12-12T06:52:37.625Z,16
2016-12-12T06:53:37.789Z,16
2016-12-12T06:54:38.113Z,20
2016-12-12T06:55:38.113Z,24
2016-12-12T06:56:37.781Z,24
2016-12-12T06:57:38.258Z,28
2016-12-12T06:58:37.809Z,28
2016-12-12T06:59:37.771Z,32
2016-12-12T07:00:37.761Z,36
2016-12-12T07:01:37.437Z,36
2016-12-12T07:02:37.757Z,40
2016-12-12T07:03:37.425Z,48
2016-12-12T07:04:38.078Z,48
2016-12-12T07:05:37.410Z,56
2016-12-12T07:06:37.734Z,68
2016-12-12T07:07:37.406Z,72
2016-12-12T07:08:37.986Z,84
2016-12-12T07:09:37.726Z,92
2016-12-12T07:10:38.046Z,88
2016-12-12T07:11:37.062Z,92
2016-12-12T07:12:37.394Z,96
2016-12-12T07:13:37.910Z,96
2016-12-12T07:14:38.034Z,100
2016-12-12T07:15:37.699Z,108
2016-12-12T07:16:37.695Z,108
2016-12-12T07:17:37.706Z,116
2016-12-12T07:18:37.519Z,120
2016-12-12T07:19:37.691Z,128
2016-12-12T07:20:37.694Z,152
2016-12-12T07:21:37.683Z,164
2016-12-12T07:22:38.009Z,172
2016-12-12T07:23:38.159Z,180
2016-12-12T07:24:38.010Z,184
2016-12-12T07:25:37.999Z,192
2016-12-12T07:26:37.995Z,200
2016-12-12T07:27:37.667Z,196
2016-12-12T07:28:37.475Z,204
2016-12-12T07:29:37.651Z,212
2016-12-12T07:30:37.667Z,224
2016-12-12T07:31:37.323Z,228
2016-12-12T07:32:37.316Z,240
2016-12-12T07:33:37.792Z,252
2016-12-12T07:34:37.972Z,264
2016-12-12T07:35:37.636Z,268
2016-12-12T07:36:37.300Z,276
2016-12-12T07:37:37.301Z,284
2016-12-12T07:38:37.828Z,296
2016-12-12T07:39:37.284Z,308
2016-12-12T07:40:37.948Z,324
2016-12-12T07:41:37.604Z,344
2016-12-12T07:42:37.940Z,360
2016-12-12T07:43:37.848Z,388
2016-12-12T07:44:37.272Z,412
2016-12-12T07:45:37.920Z,432
2016-12-12T07:46:37.261Z,456
2016-12-12T07:47:37.253Z,468
2016-12-12T07:48:38.068Z,484
2016-12-12T07:49:37.581Z,488
2016-12-12T07:50:37.573Z,484
2016-12-12T07:51:37.585Z,484
2016-12-12T07:52:37.885Z,492
2016-12-12T07:53:37.721Z,504
2016-12-12T07:54:37.561Z,516
2016-12-12T07:55:37.233Z,532
2016-12-12T07:56:37.881Z,544
2016-12-12T07:57:37.549Z,560
2016-12-12T07:58:37.694Z,572
2016-12-12T07:59:37.549Z,592
2016-12-12T08:00:37.893Z,600
2016-12-12T08:01:37.858Z,612
2016-12-12T08:02:37.534Z,628
2016-12-12T08:03:38.021Z,644
2016-12-12T08:04:37.525Z,660
2016-12-12T08:05:37.194Z,672
2016-12-12T08:06:37.845Z,680
2016-12-12T08:07:37.525Z,688
2016-12-12T08:08:37.002Z,692
2016-12-12T08:09:37.838Z,692
2016-12-12T08:10:37.494Z,684
2016-12-12T08:11:37.174Z,668
2016-12-12T08:12:36.850Z,652
2016-12-12T08:13:37.642Z,644
2016-12-12T08:14:37.162Z,640
2016-12-12T08:15:37.486Z,644
2016-12-12T08:16:37.478Z,644
2016-12-12T08:17:37.154Z,644
2016-12-12T08:18:37.622Z,656
2016-12-12T08:19:37.798Z,664
2016-12-12T08:20:37.148Z,680
2016-12-12T08:21:37.466Z,696
2016-12-12T08:22:37.462Z,716
2016-12-12T08:23:37.330Z,748
2016-12-12T08:24:37.875Z,776
2016-12-12T08:25:37.118Z,808
2016-12-12T08:26:37.783Z,836
2016-12-12T08:27:37.443Z,864
2016-12-12T08:28:38.019Z,884
2016-12-12T08:29:37.759Z,912
2016-12-12T08:30:37.111Z,940
2016-12-12T08:31:37.759Z,972
2016-12-12T08:32:37.099Z,1000
2016-12-12T08:33:37.891Z,1020
2016-12-12T08:34:37.095Z,1040
2016-12-12T08:35:37.735Z,1064
2016-12-12T08:36:37.083Z,1088
2016-12-12T08:37:37.403Z,1104
2016-12-12T08:38:37.547Z,1120
2016-12-12T08:39:37.403Z,1112
2016-12-12T08:40:37.727Z,1104
2016-12-12T08:41:37.719Z,1104
2016-12-12T08:42:37.059Z,1116
2016-12-12T08:43:37.528Z,1132
2016-12-12T08:44:37.380Z,1164
2016-12-12T08:45:37.383Z,1188
2016-12-12T08:46:37.368Z,1216
2016-12-12T08:47:37.404Z,1264
2016-12-12T08:48:36.912Z,1276
2016-12-12T08:49:37.033Z,1300
2016-12-12T08:50:37.356Z,1312
2016-12-12T08:51:37.024Z,1336
2016-12-12T08:52:37.020Z,1364
2016-12-12T08:53:37.824Z,1384
2016-12-12T08:54:37.340Z,1412
2016-12-12T08:55:37.340Z,1420
2016-12-12T08:56:37.660Z,1432
2016-12-12T08:57:37.328Z,1440
2016-12-12T08:58:36.824Z,1440
2016-12-12T08:59:37.328Z,1456
2016-12-12T09:00:37.648Z,1460
2016-12-12T09:01:36.988Z,1488
2016-12-12T09:02:37.312Z,1496
2016-12-12T09:03:37.472Z,1492
2016-12-12T09:04:37.014Z,1484
2016-12-12T09:05:37.009Z,1400
2016-12-12T09:06:36.976Z,1376
2016-12-12T09:07:37.304Z,1344
2016-12-12T09:08:37.800Z,1348
2016-12-12T09:09:37.284Z,1356
2016-12-12T09:10:37.316Z,1348
2016-12-12T09:11:37.281Z,1364
2016-12-12T09:12:37.281Z,1380
2016-12-12T09:13:37.857Z,1396
2016-12-12T09:14:36.945Z,1404
2016-12-12T09:15:37.269Z,1448
2016-12-12T09:16:37.273Z,1464
2016-12-12T09:17:36.933Z,1488
2016-12-12T09:18:37.189Z,1532
2016-12-12T09:19:37.257Z,1560
2016-12-12T09:20:37.249Z,1584
2016-12-12T09:21:37.253Z,1636
2016-12-12T09:22:37.573Z,1696
2016-12-12T09:23:37.725Z,1740
2016-12-12T09:24:37.241Z,1768
2016-12-12T09:25:37.237Z,1804
2016-12-12T09:26:37.565Z,1860
2016-12-12T09:27:36.893Z,1888
2016-12-12T09:28:37.053Z,1864
2016-12-12T09:29:37.233Z,1864
2016-12-12T09:30:36.897Z,1892
2016-12-12T09:31:37.553Z,1948
2016-12-12T09:32:36.557Z,1924
2016-12-12T09:33:37.793Z,1868
2016-12-12T09:34:37.538Z,1808
2016-12-12T09:35:37.201Z,1744
2016-12-12T09:36:36.869Z,1680
2016-12-12T09:37:36.873Z,1648
2016-12-12T09:38:37.765Z,1620
2016-12-12T09:39:37.518Z,1604
2016-12-12T09:40:37.194Z,1644
2016-12-12T09:41:37.213Z,1732
2016-12-12T09:42:37.190Z,1832
2016-12-12T09:43:37.746Z,1928
2016-12-12T09:44:37.177Z,1972
2016-12-12T09:45:36.842Z,2024
2016-12-12T09:46:37.170Z,2024
2016-12-12T09:47:37.170Z,2028
2016-12-12T09:48:37.646Z,2060
2016-12-12T09:49:37.486Z,1988
2016-12-12T09:50:37.490Z,1924
2016-12-12T09:51:37.154Z,1980
2016-12-12T09:52:36.850Z,1952
2016-12-12T09:53:37.302Z,1868
2016-12-12T09:54:37.482Z,1756
2016-12-12T09:55:37.142Z,1736
2016-12-12T09:56:37.134Z,1784
2016-12-12T09:57:37.142Z,1792
2016-12-12T09:58:36.686Z,1748
2016-12-12T09:59:36.802Z,1724
2016-12-12T10:00:37.462Z,1704
2016-12-12T10:01:37.450Z,1696
2016-12-12T10:02:37.114Z,1696
2016-12-12T10:03:37.594Z,1708
2016-12-12T10:04:37.446Z,1748
2016-12-12T10:05:36.775Z,1744
2016-12-12T10:06:36.782Z,1724
2016-12-12T10:07:37.427Z,1704
2016-12-12T10:08:37.575Z,1696
2016-12-12T10:09:37.431Z,1688
2016-12-12T10:10:37.420Z,1684
2016-12-12T10:11:37.090Z,1688
2016-12-12T10:12:36.755Z,1684
2016-12-12T10:13:37.235Z,1680
2016-12-12T10:14:36.755Z,1676
2016-12-12T10:15:37.078Z,1672
2016-12-12T10:16:37.079Z,1680
2016-12-12T10:17:37.079Z,1692
2016-12-12T10:18:37.643Z,1704
2016-12-12T10:19:37.395Z,1712
2016-12-12T10:20:36.731Z,1712
2016-12-12T10:21:36.723Z,1712
2016-12-12T10:22:37.063Z,1720
2016-12-12T10:23:37.587Z,1724
2016-12-12T10:24:37.051Z,1732
2016-12-12T10:25:37.051Z,1748
2016-12-12T10:26:37.375Z,1752
2016-12-12T10:27:37.367Z,1776
2016-12-12T10:28:37.187Z,1824
2016-12-12T10:29:37.035Z,1880
2016-12-12T10:30:37.363Z,1956
2016-12-12T10:31:37.027Z,2040
2016-12-12T10:32:36.699Z,2112
2016-12-12T10:33:37.551Z,2164
2016-12-12T10:34:37.019Z,2200
2016-12-12T10:35:36.695Z,2200
2016-12-12T10:36:37.019Z,2056
2016-12-12T10:37:37.015Z,1828
2016-12-12T10:38:36.931Z,1720
2016-12-12T10:39:37.003Z,1672
2016-12-12T10:40:37.327Z,1644
2016-12-12T10:41:37.332Z,1636
2016-12-12T10:42:37.007Z,1644
2016-12-12T10:43:37.151Z,1664
2016-12-12T10:44:36.991Z,1680
2016-12-12T10:45:36.987Z,1684
2016-12-12T10:46:37.315Z,1684
2016-12-12T10:47:36.979Z,1676
2016-12-12T10:48:37.263Z,1672
2016-12-12T10:49:37.312Z,1664
2016-12-12T10:50:37.300Z,1648
2016-12-12T10:51:37.304Z,1632
2016-12-12T10:52:36.964Z,1624
2016-12-12T10:53:36.796Z,1616
2016-12-12T10:54:37.288Z,1616
2016-12-12T10:55:36.964Z,1620
2016-12-12T10:56:37.284Z,1628
2016-12-12T10:57:36.956Z,1640
2016-12-12T10:58:37.432Z,1640
2016-12-12T10:59:36.948Z,1644
2016-12-12T11:00:36.628Z,1648
2016-12-12T11:01:36.940Z,1652
2016-12-12T11:02:36.936Z,1644
2016-12-12T11:03:36.944Z,1612
2016-12-12T11:04:36.936Z,1584
2016-12-12T11:05:37.260Z,1572
2016-12-12T11:06:36.924Z,1564
2016-12-12T11:07:36.928Z,1560
2016-12-12T11:08:36.920Z,1560
2016-12-12T11:09:36.924Z,1560
2016-12-12T11:10:36.920Z,1564
2016-12-12T11:11:37.248Z,1572
2016-12-12T11:12:37.240Z,1572
2016-12-12T11:13:36.584Z,1580
2016-12-12T11:14:37.053Z,1584
2016-12-12T11:15:37.241Z,1572
2016-12-12T11:16:36.576Z,1564
2016-12-12T11:17:36.900Z,1552
2016-12-12T11:18:36.900Z,1544
2016-12-12T11:19:36.764Z,1536
2016-12-12T11:20:36.567Z,1532
2016-12-12T11:21:36.888Z,1532
2016-12-12T11:22:36.889Z,1528
2016-12-12T11:23:36.585Z,1528
2016-12-12T11:24:37.036Z,1528
2016-12-12T11:25:36.549Z,1516
2016-12-12T11:26:37.201Z,1516
2016-12-12T11:27:36.865Z,1512
2016-12-12T11:28:36.868Z,1512
2016-12-12T11:29:36.677Z,1508
2016-12-12T11:30:36.529Z,1512
2016-12-12T11:31:36.532Z,1512
2016-12-12T11:32:36.853Z,1512
2016-12-12T11:33:36.849Z,1512
2016-12-12T11:34:37.324Z,1528
2016-12-12T11:35:37.165Z,1516
2016-12-12T11:36:36.832Z,1520
2016-12-12T11:37:37.169Z,1524
2016-12-12T11:38:36.837Z,1532
2016-12-12T11:39:36.657Z,1536
2016-12-12T11:40:36.833Z,1536
2016-12-12T11:41:36.501Z,1536
2016-12-12T11:42:36.513Z,1540
2016-12-12T11:43:36.821Z,1540
2016-12-12T11:44:36.729Z,1540
2016-12-12T11:45:36.165Z,1544
2016-12-12T11:46:37.137Z,1544
2016-12-12T11:47:36.809Z,1548
2016-12-12T11:48:36.809Z,1548
2016-12-12T11:49:36.953Z,1556
2016-12-12T11:50:37.141Z,1572
2016-12-12T11:51:36.793Z,1588
2016-12-12T11:52:36.801Z,1608
2016-12-12T11:53:37.121Z,1620
2016-12-12T11:54:37.373Z,1628
2016-12-12T11:55:36.789Z,1636
2016-12-12T11:56:36.781Z,1656
2016-12-12T11:57:36.785Z,1676
2016-12-12T11:58:36.505Z,1676
2016-12-12T11:59:36.921Z,1664
2016-12-12T12:00:36.781Z,1660
2016-12-12T12:01:36.777Z,1688
2016-12-12T12:02:36.773Z,1748
2016-12-12T12:03:36.761Z,1808
2016-12-12T12:04:36.581Z,1852
2016-12-12T12:05:37.081Z,1872
2016-12-12T12:06:36.750Z,1884
2016-12-12T12:07:37.089Z,1896
2016-12-12T12:08:37.073Z,1892
2016-12-12T12:09:37.233Z,1860
2016-12-12T12:10:37.073Z,1828
2016-12-12T12:11:37.070Z,1788
2016-12-12T12:12:36.733Z,1756
2016-12-12T12:13:37.066Z,1728
2016-12-12T12:14:37.217Z,1696
2016-12-12T12:15:37.065Z,1664
2016-12-12T12:16:36.725Z,1644
2016-12-12T12:17:37.086Z,1632
2016-12-12T12:18:36.422Z,1616
2016-12-12T12:19:36.970Z,1612
2016-12-12T12:20:37.046Z,1608
2016-12-12T12:21:36.714Z,1620
2016-12-12T12:22:36.706Z,1648
2016-12-12T12:23:36.702Z,1672
2016-12-12T12:24:36.854Z,1704
2016-12-12T12:25:36.701Z,1748
2016-12-12T12:26:36.697Z,1812
2016-12-12T12:27:36.701Z,1876
2016-12-12T12:28:36.689Z,1924
2016-12-12T12:29:37.177Z,1960
2016-12-12T12:30:37.010Z,1980
2016-12-12T12:31:36.354Z,1984
2016-12-12T12:32:36.681Z,1968
2016-12-12T12:33:36.029Z,1936
2016-12-12T12:34:37.157Z,1920
2016-12-12T12:35:36.017Z,1908
2016-12-12T12:36:37.000Z,1912
2016-12-12T12:37:37.001Z,1904
2016-12-12T12:38:36.657Z,1908
2016-12-12T12:39:36.817Z,1896
2016-12-12T12:40:36.653Z,1884
2016-12-12T12:41:36.653Z,1872
2016-12-12T12:42:36.657Z,1860
2016-12-12T12:43:36.650Z,1852
2016-12-12T12:44:36.909Z,1820
2016-12-12T12:45:36.317Z,1792
2016-12-12T12:46:36.969Z,1760
2016-12-12T12:47:36.976Z,1740
2016-12-12T12:48:36.641Z,1712
2016-12-12T12:49:36.801Z,1700
2016-12-12T12:50:36.665Z,1696
2016-12-12T12:51:36.633Z,1692
2016-12-12T12:52:36.633Z,1680
2016-12-12T12:53:36.953Z,1648
2016-12-12T12:54:37.205Z,1620
2016-12-12T12:55:36.625Z,1608
2016-12-12T12:56:36.621Z,1584
2016-12-12T12:57:36.277Z,1572
2016-12-12T12:58:36.941Z,1588
2016-12-12T12:59:36.805Z,1580
2016-12-12T13:00:36.613Z,1576
2016-12-12T13:01:36.277Z,1576
2016-12-12T13:02:36.273Z,1560
2016-12-12T13:03:36.277Z,1552
2016-12-12T13:04:36.797Z,1548
2016-12-12T13:05:36.925Z,1524
2016-12-12T13:06:36.917Z,1492
2016-12-12T13:07:36.585Z,1468
2016-12-12T13:08:36.921Z,1444
2016-12-12T13:09:36.729Z,1428
2016-12-12T13:10:36.577Z,1416
2016-12-12T13:11:36.909Z,1416
2016-12-12T13:12:36.565Z,1408
2016-12-12T13:13:36.905Z,1404
2016-12-12T13:14:37.049Z,1400
2016-12-12T13:15:36.249Z,1392
2016-12-12T13:16:36.894Z,1384
2016-12-12T13:17:36.230Z,1376
2016-12-12T13:18:36.885Z,1372
2016-12-12T13:19:36.377Z,1372
2016-12-12T13:20:36.557Z,1372
2016-12-12T13:21:36.217Z,1368
2016-12-12T13:22:36.869Z,1360
2016-12-12T13:23:36.550Z,1356
2016-12-12T13:24:36.169Z,1352
2016-12-12T13:25:36.534Z,1348
2016-12-12T13:26:36.209Z,1336
2016-12-12T13:27:36.853Z,1324
2016-12-12T13:28:35.869Z,1312
2016-12-12T13:29:37.010Z,1304
2016-12-12T13:30:36.201Z,1304
2016-12-12T13:31:36.193Z,1300
2016-12-12T13:32:36.853Z,1292
2016-12-12T13:33:36.522Z,1288
2016-12-12T13:34:36.341Z,1280
2016-12-12T13:35:36.514Z,1272
2016-12-12T13:36:36.509Z,1264
2016-12-12T13:37:36.178Z,1264
2016-12-12T13:38:36.498Z,1260
2016-12-12T13:39:37.030Z,1252
2016-12-12T13:40:36.494Z,1248
2016-12-12T13:41:36.507Z,1244
2016-12-12T13:42:36.818Z,1236
2016-12-12T13:43:36.494Z,1228
2016-12-12T13:44:36.966Z,1224
2016-12-12T13:45:36.814Z,1220
2016-12-12T13:46:36.146Z,1216
2016-12-12T13:47:36.150Z,1212
2016-12-12T13:48:36.154Z,1208
2016-12-12T13:49:36.398Z,1204
2016-12-12T13:50:36.142Z,1196
2016-12-12T13:51:36.470Z,1192
2016-12-12T13:52:36.142Z,1192
2016-12-12T13:53:36.142Z,1184
2016-12-12T13:54:36.662Z,1180
2016-12-12T13:55:36.459Z,1172
2016-12-12T13:56:36.137Z,1168
2016-12-12T13:57:36.458Z,1160
2016-12-12T13:58:36.778Z,1160
2016-12-12T13:59:36.927Z,1152
2016-12-12T14:00:36.115Z,1152
2016-12-12T14:01:36.446Z,1144
2016-12-12T14:02:36.443Z,1136